This demonstration page uses our WeatherBlox Daily Observations layout. Learn more.

38.88101, -77.10428

Hourly Observations for March 30, 2016

Temp ( °F °C ) Dew Point ( °F °C ) Humidity (%) Winds ( mph kmh ) Pressure ( in mb ) Visibility ( mi km ) Precip ( " mm )
12:52 am 00:52 Clear 47 8.3 25 -3.9 42 42 NNW 7 11 30.3 1026 10 16.09344 0 0
1:52 am 01:52 Clear 47 8.3 23 -5 39 39 NW 5 7 30.3 1026 10 16.09344 0 0
2:52 am 02:52 Clear 45 7.2 26 -3.3 48 48 N 5 7 30.3 1026 10 16.09344 0 0
3:52 am 03:52 Clear 45 7.2 32 0 61 61 NE 6 9 30.33 1027 10 16.09344 0 0
4:52 am 04:52 Clear 44 6.7 28 -2.2 53 53 NE 5 7 30.33 1027 10 16.09344 0 0
5:52 am 05:52 Mostly Clear 42 5.6 25 -3.9 51 51 NNE 6 9 30.36 1028 10 16.09344 0 0
6:52 am 06:52 Mostly Clear 42 5.6 24 -4.4 49 49 NE 6 9 30.39 1029 10 16.09344 0 0
7:52 am 07:52 Mostly Sunny 43 6.1 25 -3.9 49 49 Calm 30.42 1030 10 16.09344 0 0
8:52 am 08:52 Mostly Sunny 46 7.8 24 -4.4 42 42 SE 3 6 30.42 1030 10 16.09344 0 0
9:52 am 09:52 Mostly Sunny 49 9.4 22 -5.6 35 35 ESE 5 7 30.42 1030 10 16.09344 0 0
10:52 am 10:52 Mostly Sunny 51 10.6 20 -6.7 29 29 N 3 6 30.39 1029 10 16.09344 0 0
11:52 am 11:52 Partly Cloudy 54 12.2 24 -4.4 31 31 S 8 13 30.39 1029 10 16.09344 0 0
12:52 pm 12:52 Mostly Cloudy 56 13.3 26 -3.3 32 32 S 8 13 30.33 1027 10 16.09344 0 0
1:52 pm 13:52 Mostly Cloudy 59 15 32 0 36 36 S 15 24 30.3 1026 10 16.09344 0 0
2:52 pm 14:52 Cloudy 60 15.6 31 -0.6 33 33 S 14 22 30.3 1026 10 16.09344 0 0
3:52 pm 15:52 Mostly Cloudy 61 16.1 33 0.6 35 35 S 14 22 30.24 1024 10 16.09344 0 0
4:52 pm 16:52 Mostly Cloudy 62 16.7 34 1.1 35 35 S 17 28 30.21 1023 10 16.09344 0 0
5:52 pm 17:52 Mostly Cloudy 62 16.7 37 2.8 40 40 S 14 22 30.18 1022 10 16.09344 0 0
6:52 pm 18:52 Mostly Cloudy 59 15 36 2.2 42 42 S 14 22 30.18 1022 10 16.09344 0 0
7:52 pm 19:52 Mostly Cloudy 56 13.3 36 2.2 47 47 SSE 9 15 30.18 1022 10 16.09344 0 0
8:52 pm 20:52 Mostly Cloudy 55 12.8 35 1.7 47 47 SSE 14 22 30.18 1022 10 16.09344 0 0
9:52 pm 21:52 Mostly Cloudy 54 12.2 35 1.7 49 49 S 15 24 30.18 1022 10 16.09344 0 0
10:52 pm 22:52 Mostly Cloudy 54 12.2 37 2.8 53 53 S 18 30 30.15 1021 10 16.09344 0 0
11:52 pm 23:52 Mostly Cloudy 54 12.2 39 3.9 57 57 S 14 22 30.15 1021 10 16.09344 0 0

Powered by AerisWeather